Time;durP1;ratioP1;P1;durP2;ratioP2;P2;SDS_P1;SDS_P2;PMS_P1;PMS_P2;Temp;Humidity;BMP_temperature;BMP_pressure;BME280_temperature;BME280_humidity;BME280_pressure;Samples;Min_cycle;Max_cycle;Signal;HPM_P1;HPM_P2
2023/03/21 00:02:02;;;;;;;14.30;4.57;;;10.80;99.90;;;;;;5033377;28;20073;-63
2023/03/21 00:04:29;;;;;;;12.20;4.47;;;10.80;99.90;;;;;;5033588;28;20041;-63
2023/03/21 00:07:10;;;;;;;11.63;4.43;;;10.80;99.90;;;;;;5033714;28;20049;-63
2023/03/21 00:09:36;;;;;;;12.23;4.65;;;10.80;99.90;;;;;;5033328;28;20044;-63
2023/03/21 00:12:06;;;;;;;10.07;4.03;;;10.80;99.90;;;;;;5033799;28;20045;-63
2023/03/21 00:14:33;;;;;;;15.82;5.38;;;10.80;99.90;;;;;;5033339;28;20048;-63
2023/03/21 00:17:00;;;;;;;13.50;4.78;;;10.80;99.90;;;;;;5033456;28;20049;-62
2023/03/21 00:19:27;;;;;;;16.20;4.90;;;10.80;99.90;;;;;;5033492;28;20103;-63
2023/03/21 00:21:54;;;;;;;12.75;4.97;;;10.70;99.90;;;;;;5033325;28;20041;-63
2023/03/21 00:24:33;;;;;;;9.20;4.45;;;10.70;99.90;;;;;;5033201;28;20041;-63
2023/03/21 00:27:00;;;;;;;16.92;5.00;;;10.80;99.90;;;;;;5033538;28;20038;-62
2023/03/21 00:29:48;;;;;;;16.65;5.30;;;10.70;99.90;;;;;;5034612;28;20485;-63
2023/03/21 00:32:16;;;;;;;14.43;4.60;;;10.70;99.90;;;;;;5036168;28;20132;-63
2023/03/21 00:34:46;;;;;;;16.88;5.43;;;10.70;99.90;;;;;;5037490;28;20041;-64
2023/03/21 00:37:32;;;;;;;13.55;4.70;;;10.70;99.90;;;;;;5037248;28;20493;-63
2023/03/21 00:39:59;;;;;;;12.10;4.45;;;10.70;99.90;;;;;;5036017;28;20076;-63
2023/03/21 00:42:28;;;;;;;15.10;5.90;;;10.70;99.90;;;;;;5035677;28;20156;-64
2023/03/21 00:44:55;;;;;;;16.67;5.10;;;10.70;99.90;;;;;;5037085;28;20120;-63
2023/03/21 00:47:22;;;;;;;13.45;5.70;;;10.70;99.90;;;;;;5036930;28;20041;-63
2023/03/21 00:49:51;;;;;;;13.52;4.80;;;10.70;99.90;;;;;;5037022;28;20061;-63
2023/03/21 00:52:18;;;;;;;16.85;5.25;;;10.70;99.90;;;;;;5036624;28;20376;-64
2023/03/21 00:55:03;;;;;;;12.27;4.65;;;10.70;99.90;;;;;;5036059;28;20050;-63
2023/03/21 00:57:30;;;;;;;14.18;5.05;;;10.70;99.90;;;;;;5037072;28;20073;-63
2023/03/21 01:00:06;;;;;;;20.52;5.18;;;10.80;99.90;;;;;;5037025;28;20418;-62
2023/03/21 01:02:34;;;;;;;15.20;5.20;;;10.70;99.90;;;;;;5035701;28;20130;-63
2023/03/21 01:05:01;;;;;;;14.20;4.80;;;10.70;99.90;;;;;;5036979;28;20038;-63
2023/03/21 01:07:27;;;;;;;17.40;5.40;;;10.70;99.90;;;;;;5036342;28;20068;-64
2023/03/21 01:09:54;;;;;;;19.25;5.50;;;10.70;99.90;;;;;;5036705;28;20048;-63
2023/03/21 01:12:21;;;;;;;12.60;4.72;;;10.70;99.90;;;;;;5036436;28;20511;-63
2023/03/21 01:14:47;;;;;;;17.40;5.55;;;10.70;99.90;;;;;;5035310;28;20049;-63
2023/03/21 01:17:14;;;;;;;16.73;5.32;;;10.70;99.90;;;;;;5036260;28;20124;-63
2023/03/21 01:19:42;;;;;;;15.38;5.47;;;10.70;99.90;;;;;;5036547;28;20045;-63
2023/03/21 01:22:18;;;;;;;13.88;4.72;;;10.60;99.90;;;;;;5035111;28;20037;-63
2023/03/21 01:24:44;;;;;;;13.82;5.40;;;10.60;99.90;;;;;;5036085;28;20065;-63
2023/03/21 01:27:24;;;;;;;19.52;5.63;;;10.60;99.90;;;;;;5036351;28;20443;-63
2023/03/21 01:29:51;;;;;;;15.80;5.50;;;10.60;99.90;;;;;;5035223;28;20469;-63
2023/03/21 01:32:18;;;;;;;11.23;4.70;;;10.60;99.90;;;;;;5036080;28;20069;-63
2023/03/21 01:34:44;;;;;;;14.55;5.95;;;10.60;99.90;;;;;;5034676;28;20045;-63
2023/03/21 01:37:11;;;;;;;17.23;5.35;;;10.60;99.90;;;;;;5036333;28;20403;-63
2023/03/21 01:39:44;;;;;;;12.23;5.50;;;10.60;99.90;;;;;;5034686;28;20041;-62
2023/03/21 01:42:11;;;;;;;14.85;5.90;;;10.60;99.90;;;;;;5035150;28;20041;-63
2023/03/21 01:44:38;;;;;;;18.05;6.07;;;10.60;99.90;;;;;;5036094;28;20037;-61
2023/03/21 01:47:05;;;;;;;12.13;5.35;;;10.60;99.90;;;;;;5034521;28;20065;-62
2023/03/21 01:49:44;;;;;;;13.88;5.63;;;10.60;99.90;;;;;;5035875;28;20156;-61
2023/03/21 01:52:18;;;;;;;16.33;5.88;;;10.60;99.90;;;;;;5036165;28;20140;-62
2023/03/21 01:55:02;;;;;;;18.30;6.00;;;10.60;99.90;;;;;;5034786;28;20050;-61
2023/03/21 01:57:37;;;;;;;17.50;6.10;;;10.60;99.90;;;;;;5034474;28;20075;-62
2023/03/21 02:00:15;;;;;;;17.23;6.40;;;10.60;99.90;;;;;;5034240;28;20058;-62
2023/03/21 02:02:54;;;;;;;11.68;5.63;;;10.50;99.90;;;;;;5035259;28;20041;-61
2023/03/21 02:05:51;;;;;;;15.73;5.90;;;10.50;99.90;;;;;;5035908;28;20349;-62
2023/03/21 02:08:19;;;;;;;19.17;6.20;;;10.40;99.90;;;;;;5034413;28;20046;-62
2023/03/21 02:10:51;;;;;;;14.10;5.40;;;10.40;99.90;;;;;;5034737;28;20037;-62
2023/03/21 02:13:30;;;;;;;19.52;5.85;;;10.40;99.90;;;;;;5034395;28;20049;-62
2023/03/21 02:15:57;;;;;;;18.05;5.65;;;10.40;99.90;;;;;;5034437;28;20077;-62
2023/03/21 02:18:30;;;;;;;16.25;5.88;;;10.40;99.90;;;;;;5034016;28;20045;-62
2023/03/21 02:20:57;;;;;;;14.82;5.80;;;10.40;99.90;;;;;;5034155;28;20396;-62
2023/03/21 02:23:33;;;;;;;16.40;5.53;;;10.30;99.90;;;;;;5033739;28;20412;-62
2023/03/21 02:26:00;;;;;;;18.85;6.15;;;10.40;99.90;;;;;;5033838;28;20042;-62
2023/03/21 02:28:27;;;;;;;14.65;5.32;;;10.40;99.90;;;;;;5034015;28;20092;-62
2023/03/21 02:30:55;;;;;;;16.48;5.85;;;10.30;99.90;;;;;;5033817;28;20053;-62
2023/03/21 02:33:22;;;;;;;13.50;6.28;;;10.30;99.90;;;;;;5034029;28;20496;-62
2023/03/21 02:35:50;;;;;;;16.40;6.55;;;10.30;99.90;;;;;;5033837;28;20049;-62
2023/03/21 02:38:23;;;;;;;18.10;6.13;;;10.30;99.90;;;;;;5033801;28;20061;-62
2023/03/21 02:40:49;;;;;;;14.82;6.40;;;10.30;99.90;;;;;;5033558;28;20042;-62
2023/03/21 02:43:19;;;;;;;17.15;6.32;;;10.30;99.90;;;;;;5033746;28;20049;-62
2023/03/21 02:45:49;;;;;;;16.27;6.20;;;10.30;99.90;;;;;;5033552;28;20046;-62
2023/03/21 02:48:16;;;;;;;18.42;6.25;;;10.30;99.90;;;;;;5033922;28;20050;-62
2023/03/21 02:50:55;;;;;;;19.33;6.85;;;10.20;99.90;;;;;;5033887;28;20072;-62
2023/03/21 02:53:22;;;;;;;19.92;5.55;;;10.30;99.90;;;;;;5033302;28;20037;-62
2023/03/21 02:55:50;;;;;;;19.40;6.18;;;10.30;99.90;;;;;;5033751;28;20083;-62
2023/03/21 02:58:17;;;;;;;19.20;6.07;;;10.30;99.90;;;;;;5034785;28;20045;-62
2023/03/21 03:00:48;;;;;;;17.23;6.45;;;10.30;99.90;;;;;;5033387;28;20401;-62
2023/03/21 03:03:38;;;;;;;12.52;5.57;;;10.30;99.90;;;;;;5034453;28;20057;-62
2023/03/21 03:06:05;;;;;;;12.65;5.75;;;10.30;99.90;;;;;;5034624;28;20049;-62
2023/03/21 03:08:32;;;;;;;21.02;5.90;;;10.30;99.90;;;;;;5033050;28;20041;-62
2023/03/21 03:11:13;;;;;;;14.43;5.38;;;10.30;99.90;;;;;;5033089;28;20053;-62
2023/03/21 03:13:40;;;;;;;15.60;5.43;;;10.30;99.90;;;;;;5033055;28;20424;-62
2023/03/21 03:16:08;;;;;;;18.75;5.30;;;10.30;99.90;;;;;;5032814;28;20053;-62
2023/03/21 03:18:35;;;;;;;20.83;5.95;;;10.30;99.90;;;;;;5032996;28;20046;-62
2023/03/21 03:21:02;;;;;;;14.43;4.85;;;10.30;99.90;;;;;;5032472;28;20041;-63
2023/03/21 03:23:29;;;;;;;16.88;4.45;;;10.30;99.90;;;;;;5033820;28;20436;-62
2023/03/21 03:25:56;;;;;;;19.38;5.88;;;10.30;99.90;;;;;;5032779;28;20158;-62
2023/03/21 03:28:23;;;;;;;13.30;4.65;;;10.30;99.90;;;;;;5032824;28;20380;-62
2023/03/21 03:30:50;;;;;;;16.80;5.63;;;10.20;99.90;;;;;;5032977;28;20049;-62
2023/03/21 03:33:39;;;;;;;14.57;4.55;;;10.30;99.90;;;;;;5032351;28;20046;-62
2023/03/21 03:36:05;;;;;;;14.25;4.30;;;10.20;99.90;;;;;;5032910;28;20041;-62
2023/03/21 03:38:35;;;;;;;17.02;4.18;;;10.20;99.90;;;;;;5033910;28;20038;-62
2023/03/21 03:41:02;;;;;;;17.83;4.88;;;10.20;99.90;;;;;;5032467;28;20535;-62
2023/03/21 03:43:39;;;;;;;18.45;3.78;;;10.20;99.90;;;;;;5032407;28;20095;-62
2023/03/21 03:46:09;;;;;;;12.35;3.70;;;10.10;99.90;;;;;;5032514;28;20128;-62
2023/03/21 03:48:37;;;;;;;13.77;4.10;;;10.10;99.90;;;;;;5032447;28;20041;-62
2023/03/21 03:51:04;;;;;;;12.88;3.83;;;10.10;99.90;;;;;;5033411;28;20061;-62
2023/03/21 03:53:53;;;;;;;16.05;4.32;;;10.10;99.90;;;;;;5033730;28;20053;-62
2023/03/21 03:56:24;;;;;;;15.50;3.97;;;10.00;99.90;;;;;;5032334;28;20099;-62
2023/03/21 03:58:51;;;;;;;15.07;4.13;;;10.00;99.90;;;;;;5032677;28;20046;-62
2023/03/21 04:01:23;;;;;;;21.27;3.83;;;10.00;99.90;;;;;;5032283;28;20492;-62
2023/03/21 04:03:50;;;;;;;13.38;3.88;;;10.00;99.90;;;;;;5031607;28;20041;-62
2023/03/21 04:06:29;;;;;;;16.45;3.72;;;10.00;99.90;;;;;;5032568;28;20045;-62
2023/03/21 04:08:56;;;;;;;13.93;4.05;;;9.90;99.90;;;;;;5032406;28;20069;-62
2023/03/21 04:11:28;;;;;;;16.40;4.72;;;9.90;99.90;;;;;;5032366;28;20384;-62
2023/03/21 04:13:55;;;;;;;16.13;4.30;;;9.90;99.90;;;;;;5031814;28;20413;-62
2023/03/21 04:16:23;;;;;;;18.08;5.40;;;9.90;99.90;;;;;;5032126;28;20132;-62
2023/03/21 04:18:51;;;;;;;12.40;3.58;;;10.00;99.90;;;;;;5031891;28;20049;-62
2023/03/21 04:21:18;;;;;;;11.85;3.67;;;9.90;99.90;;;;;;5031995;28;20068;-62
2023/03/21 04:23:44;;;;;;;14.93;4.03;;;10.00;99.90;;;;;;5031582;28;20061;-62
2023/03/21 04:26:11;;;;;;;13.63;3.60;;;10.00;99.90;;;;;;5032122;28;20137;-62
2023/03/21 04:28:45;;;;;;;17.75;3.50;;;10.00;99.90;;;;;;5032356;28;20061;-62
2023/03/21 04:31:29;;;;;;;12.20;3.85;;;10.00;99.90;;;;;;5032192;28;20046;-62
2023/03/21 04:34:08;;;;;;;12.65;3.50;;;10.00;99.90;;;;;;5032113;28;20064;-62
2023/03/21 04:36:46;;;;;;;13.38;3.35;;;10.00;99.90;;;;;;5031768;28;20527;-60
2023/03/21 04:39:14;;;;;;;15.60;4.10;;;10.00;99.90;;;;;;5032018;28;20140;-62
2023/03/21 04:41:44;;;;;;;12.05;3.40;;;9.90;99.90;;;;;;5031641;28;20042;-61
2023/03/21 04:44:11;;;;;;;13.18;3.95;;;9.90;99.90;;;;;;5033203;28;20061;-61
2023/03/21 04:46:37;;;;;;;13.73;3.25;;;9.90;99.90;;;;;;5032115;28;20041;-61
2023/03/21 04:49:08;;;;;;;14.00;3.30;;;9.90;99.90;;;;;;5031905;28;20459;-63
2023/03/21 04:51:35;;;;;;;17.98;3.47;;;9.90;99.90;;;;;;5031791;28;20045;-63
2023/03/21 04:54:06;;;;;;;14.52;3.90;;;9.90;99.90;;;;;;5031677;28;20037;-62
2023/03/21 04:56:34;;;;;;;14.05;2.95;;;9.80;99.90;;;;;;5032177;28;20117;-62
2023/03/21 04:59:02;;;;;;;13.82;3.50;;;9.80;99.90;;;;;;5031684;28;20519;-63
2023/03/21 05:01:29;;;;;;;12.35;3.17;;;9.80;99.90;;;;;;5031722;28;20049;-63
2023/03/21 05:03:56;;;;;;;12.77;3.05;;;9.80;99.90;;;;;;5032647;28;20038;-63
2023/03/21 05:06:23;;;;;;;14.35;3.30;;;9.80;99.90;;;;;;5031593;28;20042;-63
2023/03/21 05:08:49;;;;;;;15.13;4.07;;;9.80;99.90;;;;;;5031987;28;20041;-63
2023/03/21 05:11:16;;;;;;;14.57;3.03;;;9.80;99.90;;;;;;5032021;28;20076;-63
2023/03/21 05:13:43;;;;;;;19.67;3.53;;;9.80;99.90;;;;;;5033002;28;20045;-63
2023/03/21 05:16:10;;;;;;;15.68;3.05;;;9.80;99.90;;;;;;5035813;28;20041;-63
2023/03/21 05:18:37;;;;;;;21.98;3.40;;;9.80;99.90;;;;;;5035546;28;20046;-63
2023/03/21 05:21:16;;;;;;;14.68;2.78;;;9.80;99.90;;;;;;5035680;28;20097;-63
2023/03/21 05:23:52;;;;;;;11.25;2.88;;;9.80;99.90;;;;;;5035275;28;20041;-63
2023/03/21 05:26:19;;;;;;;16.30;2.95;;;9.80;99.90;;;;;;5035113;28;20045;-63
2023/03/21 05:28:55;;;;;;;10.93;2.53;;;9.80;99.90;;;;;;5035378;28;20056;-63
2023/03/21 05:31:23;;;;;;;12.38;2.47;;;9.70;99.90;;;;;;5035058;28;20091;-63
2023/03/21 05:33:57;;;;;;;16.60;4.15;;;9.70;99.90;;;;;;5034977;28;20579;-63
2023/03/21 05:36:24;;;;;;;15.68;3.30;;;9.70;99.90;;;;;;5036753;28;20038;-64
2023/03/21 05:38:51;;;;;;;13.43;2.92;;;9.70;99.90;;;;;;5035163;28;20073;-63
2023/03/21 05:41:20;;;;;;;15.43;3.30;;;9.60;99.90;;;;;;5035032;28;20049;-63
2023/03/21 05:43:47;;;;;;;13.25;3.28;;;9.60;99.90;;;;;;5034490;28;20045;-63
2023/03/21 05:46:14;;;;;;;8.90;2.80;;;9.60;99.90;;;;;;5034882;28;20064;-63
2023/03/21 05:48:41;;;;;;;13.63;3.80;;;9.60;99.90;;;;;;5034759;28;20045;-63
2023/03/21 05:51:13;;;;;;;16.88;3.28;;;9.60;99.90;;;;;;5034774;28;20088;-64
2023/03/21 05:53:40;;;;;;;10.93;2.80;;;9.60;99.90;;;;;;5035899;28;20128;-63
2023/03/21 05:56:07;;;;;;;11.38;2.85;;;9.60;99.90;;;;;;5034588;28;20042;-63
2023/03/21 05:58:46;;;;;;;9.75;2.80;;;9.60;99.90;;;;;;5034608;28;20045;-63
2023/03/21 06:01:13;;;;;;;13.00;3.17;;;9.60;99.90;;;;;;5034724;28;20472;-63
2023/03/21 06:03:46;;;;;;;11.52;2.72;;;9.60;99.90;;;;;;5034641;28;20038;-63
2023/03/21 06:06:20;;;;;;;9.15;2.33;;;9.60;99.90;;;;;;5034427;28;20385;-62
2023/03/21 06:08:55;;;;;;;15.70;3.05;;;9.60;99.90;;;;;;5034363;28;20049;-62
2023/03/21 06:11:23;;;;;;;11.27;2.72;;;9.60;99.90;;;;;;5034150;28;20042;-62
2023/03/21 06:13:54;;;;;;;11.63;2.80;;;9.60;99.90;;;;;;5034244;28;20425;-62
2023/03/21 06:16:21;;;;;;;12.82;2.97;;;9.60;99.90;;;;;;5034317;28;20468;-62
2023/03/21 06:18:48;;;;;;;19.88;3.08;;;9.60;99.90;;;;;;5034043;28;20144;-62
2023/03/21 06:21:35;;;;;;;12.43;2.58;;;9.60;99.90;;;;;;5034219;28;20416;-63
2023/03/21 06:24:06;;;;;;;11.10;3.17;;;9.60;99.90;;;;;;5033613;28;20052;-63
2023/03/21 06:26:33;;;;;;;10.50;2.33;;;9.60;99.90;;;;;;5033492;28;20045;-62
2023/03/21 06:29:00;;;;;;;12.38;2.40;;;9.60;99.90;;;;;;5034189;28;20492;-62
2023/03/21 06:31:26;;;;;;;8.63;2.55;;;9.70;99.90;;;;;;5034348;28;20042;-62
2023/03/21 06:34:00;;;;;;;9.80;2.67;;;9.70;99.90;;;;;;5034042;28;20053;-62
2023/03/21 06:36:26;;;;;;;11.68;2.60;;;9.70;99.90;;;;;;5034104;28;20099;-62
2023/03/21 06:38:53;;;;;;;11.10;2.90;;;9.70;99.90;;;;;;5034202;28;20045;-62
2023/03/21 06:41:20;;;;;;;10.30;2.97;;;9.70;99.90;;;;;;5033832;28;20053;-62
2023/03/21 06:43:58;;;;;;;8.65;2.85;;;9.70;99.90;;;;;;5033728;28;20057;-62
2023/03/21 06:46:26;;;;;;;13.32;3.00;;;9.70;99.90;;;;;;5033705;28;20148;-63
2023/03/21 06:48:54;;;;;;;11.93;2.88;;;9.70;99.90;;;;;;5033837;28;20042;-62
2023/03/21 06:51:21;;;;;;;8.52;2.20;;;9.70;99.90;;;;;;5033981;28;20443;-62
2023/03/21 06:54:14;;;;;;;8.00;2.65;;;9.70;99.90;;;;;;5035704;28;20058;-62
2023/03/21 06:56:49;;;;;;;8.20;2.42;;;9.80;99.90;;;;;;5033397;28;20045;-63
2023/03/21 06:59:22;;;;;;;9.43;2.55;;;9.80;99.90;;;;;;5033749;28;20103;-62
2023/03/21 07:02:04;;;;;;;7.85;2.28;;;9.80;99.90;;;;;;5033378;28;20049;-62
2023/03/21 07:04:36;;;;;;;10.95;2.55;;;9.80;99.90;;;;;;5033349;28;20088;-62
2023/03/21 07:07:04;;;;;;;7.72;2.38;;;9.90;99.90;;;;;;5033346;28;20049;-62
2023/03/21 07:09:31;;;;;;;7.53;2.47;;;9.90;99.90;;;;;;5034924;28;20436;-61
2023/03/21 07:12:03;;;;;;;8.98;2.50;;;9.90;99.90;;;;;;5033404;28;20050;-61
2023/03/21 07:14:42;;;;;;;8.50;2.65;;;9.90;99.90;;;;;;5034586;28;20037;-61
2023/03/21 07:17:10;;;;;;;9.02;2.75;;;10.00;99.90;;;;;;5033213;28;20041;-62
2023/03/21 07:19:37;;;;;;;8.43;2.70;;;10.00;99.90;;;;;;5032929;28;20057;-63
2023/03/21 07:22:04;;;;;;;7.55;2.45;;;10.10;99.90;;;;;;5016996;28;20103;-63
2023/03/21 07:24:30;;;;;;;6.35;2.10;;;10.20;99.90;;;;;;5032682;28;20080;-63
2023/03/21 07:26:57;;;;;;;6.70;2.33;;;10.10;99.90;;;;;;5032838;28;20124;-63
2023/03/21 07:29:24;;;;;;;5.80;2.08;;;10.20;99.90;;;;;;5034057;28;20041;-63
2023/03/21 07:31:51;;;;;;;5.20;1.90;;;10.20;99.90;;;;;;5032943;28;20480;-63
2023/03/21 07:34:21;;;;;;;6.07;2.10;;;10.20;99.90;;;;;;5032497;28;20404;-64
2023/03/21 07:36:49;;;;;;;5.63;1.90;;;10.30;99.90;;;;;;5032903;28;20405;-63
2023/03/21 07:39:16;;;;;;;6.57;2.38;;;10.30;99.90;;;;;;5032225;28;20037;-63
2023/03/21 07:41:43;;;;;;;5.68;2.20;;;10.30;99.90;;;;;;5032904;28;20049;-63
2023/03/21 07:44:22;;;;;;;7.28;2.03;;;10.30;99.90;;;;;;5032295;28;20041;-63
2023/03/21 07:47:00;;;;;;;8.45;3.28;;;10.30;99.90;;;;;;5032886;28;20484;-63
2023/03/21 07:49:27;;;;;;;5.47;2.05;;;10.30;99.90;;;;;;5032436;28;20045;-63
2023/03/21 07:51:54;;;;;;;7.25;2.53;;;10.30;99.90;;;;;;5032440;28;20072;-63
2023/03/21 07:54:21;;;;;;;8.98;2.63;;;10.30;99.90;;;;;;5033758;28;20064;-63
2023/03/21 07:56:48;;;;;;;6.85;2.10;;;10.30;99.90;;;;;;5033813;28;20043;-63
2023/03/21 07:59:15;;;;;;;7.85;1.73;;;10.30;99.90;;;;;;5033917;28;20051;-64
2023/03/21 08:01:42;;;;;;;9.68;2.75;;;10.30;99.90;;;;;;5033731;28;20049;-64
2023/03/21 08:04:08;;;;;;;6.00;2.80;;;10.40;99.90;;;;;;5033298;28;20052;-63
2023/03/21 08:06:35;;;;;;;6.13;2.15;;;10.30;99.90;;;;;;5033399;28;20076;-63
2023/03/21 08:09:02;;;;;;;4.28;1.45;;;10.40;99.90;;;;;;5033504;28;20436;-63
2023/03/21 08:11:30;;;;;;;12.52;2.45;;;10.40;99.90;;;;;;5033523;28;20069;-65
2023/03/21 08:13:57;;;;;;;8.70;2.15;;;10.30;99.90;;;;;;5018660;28;20361;-61
2023/03/21 08:16:23;;;;;;;4.43;1.80;;;10.30;99.90;;;;;;5023228;28;20045;-63
2023/03/21 08:18:50;;;;;;;7.75;1.98;;;10.40;99.90;;;;;;5024264;28;20050;-63
2023/03/21 08:21:17;;;;;;;4.40;2.33;;;10.40;99.90;;;;;;5022249;28;20061;-63
2023/03/21 08:23:44;;;;;;;5.78;1.95;;;10.50;99.90;;;;;;5022687;28;20041;-64
2023/03/21 08:26:17;;;;;;;31.55;18.27;;;10.50;99.90;;;;;;5023035;28;20065;-63
2023/03/21 08:28:44;;;;;;;11.20;3.83;;;10.60;99.90;;;;;;5023215;28;20112;-64
2023/03/21 08:31:10;;;;;;;8.93;2.40;;;10.60;99.90;;;;;;5022146;28;20057;-63
2023/03/21 08:33:37;;;;;;;17.60;4.03;;;10.70;99.90;;;;;;5018820;28;20086;-63
2023/03/21 08:36:04;;;;;;;12.95;3.20;;;10.70;99.90;;;;;;5012539;28;20088;-63
2023/03/21 08:38:32;;;;;;;11.18;4.15;;;10.70;99.90;;;;;;5013703;28;20046;-64
2023/03/21 08:40:59;;;;;;;12.05;2.88;;;10.80;99.90;;;;;;5013904;28;20049;-63
2023/03/21 08:43:26;;;;;;;87.72;15.38;;;10.80;99.90;;;;;;5011966;28;20045;-63
2023/03/21 08:45:52;;;;;;;41.28;5.82;;;10.80;99.90;;;;;;5013904;28;20060;-63
2023/03/21 08:48:19;;;;;;;138.73;9.65;;;10.90;99.90;;;;;;5013757;28;20077;-64
2023/03/21 08:50:46;;;;;;;11.57;2.50;;;10.90;99.90;;;;;;5016000;28;20125;-63
2023/03/21 08:53:13;;;;;;;22.58;3.13;;;11.00;99.90;;;;;;5017094;28;20046;-63
2023/03/21 08:55:40;;;;;;;15.57;3.38;;;11.00;99.90;;;;;;5017727;28;20069;-64
2023/03/21 08:58:06;;;;;;;11.48;2.90;;;11.00;99.90;;;;;;5017131;28;20049;-63
2023/03/21 09:00:33;;;;;;;15.70;2.95;;;11.00;99.90;;;;;;5017361;28;20482;-64
2023/03/21 09:03:00;;;;;;;38.38;5.38;;;11.00;99.90;;;;;;5017138;28;20400;-64
2023/03/21 09:05:27;;;;;;;92.22;8.57;;;11.10;99.90;;;;;;5017161;28;20088;-63
2023/03/21 09:07:54;;;;;;;50.47;5.63;;;11.20;99.90;;;;;;5017154;28;20042;-63
2023/03/21 09:10:20;;;;;;;13.75;2.78;;;11.30;99.90;;;;;;5026975;28;20061;-63
2023/03/21 09:12:48;;;;;;;18.40;4.70;;;11.40;99.90;;;;;;5035352;28;20076;-63
2023/03/21 09:15:16;;;;;;;25.60;4.30;;;11.40;99.90;;;;;;5036507;28;20121;-63
2023/03/21 09:17:47;;;;;;;37.47;18.60;;;11.50;99.90;;;;;;5032568;28;20041;-63
2023/03/21 09:20:17;;;;;;;30.17;8.32;;;11.60;99.90;;;;;;5034113;28;20060;-64
2023/03/21 09:22:44;;;;;;;14.68;3.22;;;11.60;99.90;;;;;;5035593;28;20107;-63
2023/03/21 09:25:12;;;;;;;24.05;2.83;;;11.60;99.90;;;;;;5036016;28;20053;-63
2023/03/21 09:27:38;;;;;;;55.88;4.00;;;11.60;99.90;;;;;;5036244;28;20083;-63
2023/03/21 09:30:06;;;;;;;57.33;5.18;;;11.70;99.90;;;;;;5035764;28;20095;-63
2023/03/21 09:32:33;;;;;;;59.15;3.45;;;11.70;99.90;;;;;;5036400;28;20083;-63
2023/03/21 09:35:00;;;;;;;12.35;1.90;;;11.80;99.90;;;;;;5036087;28;20069;-63
2023/03/21 09:37:26;;;;;;;39.92;3.30;;;11.80;99.90;;;;;;5035651;28;20116;-63
2023/03/21 09:39:55;;;;;;;36.00;3.42;;;11.90;99.90;;;;;;5036109;28;20088;-63
2023/03/21 09:42:22;;;;;;;31.52;2.75;;;12.10;99.90;;;;;;5034661;28;20135;-63
2023/03/21 09:44:50;;;;;;;20.33;2.40;;;12.20;99.90;;;;;;5035997;28;20468;-63
2023/03/21 09:47:20;;;;;;;18.88;2.13;;;12.30;99.90;;;;;;5034388;28;20038;-63
2023/03/21 09:49:49;;;;;;;9.32;1.73;;;12.40;99.90;;;;;;5035987;28;20044;-63
2023/03/21 09:52:16;;;;;;;12.20;2.13;;;12.50;99.90;;;;;;5035336;28;20052;-63
2023/03/21 09:54:43;;;;;;;7.72;1.77;;;12.50;99.90;;;;;;5035546;28;20041;-63
2023/03/21 09:57:10;;;;;;;32.10;5.32;;;12.60;99.90;;;;;;5035615;28;20042;-61
2023/03/21 09:59:38;;;;;;;11.27;2.42;;;12.70;99.90;;;;;;5035521;28;20077;-63
2023/03/21 10:02:05;;;;;;;11.32;2.40;;;12.70;99.90;;;;;;5034680;28;20037;-63
2023/03/21 10:04:32;;;;;;;17.83;3.75;;;12.80;99.90;;;;;;5035104;28;20061;-63
2023/03/21 10:07:00;;;;;;;10.02;2.47;;;12.90;99.90;;;;;;5035062;28;20117;-64
2023/03/21 10:09:28;;;;;;;17.15;2.53;;;13.00;99.90;;;;;;5035384;28;20485;-63
2023/03/21 10:11:54;;;;;;;18.83;4.68;;;13.10;99.90;;;;;;5034759;28;20512;-63
2023/03/21 10:14:21;;;;;;;41.80;12.38;;;13.20;99.90;;;;;;5035170;28;20056;-63
2023/03/21 10:16:48;;;;;;;15.52;3.17;;;13.20;99.90;;;;;;5034803;28;20042;-63
2023/03/21 10:19:15;;;;;;;19.88;4.70;;;13.30;99.90;;;;;;5035292;28;20049;-63
2023/03/21 10:21:42;;;;;;;10.32;2.33;;;13.30;99.90;;;;;;5035164;28;20037;-63
2023/03/21 10:24:26;;;;;;;8.32;2.10;;;13.20;99.90;;;;;;5034292;28;20129;-63
2023/03/21 10:26:53;;;;;;;5.90;1.35;;;13.20;99.90;;;;;;5035115;28;20065;-63
2023/03/21 10:29:21;;;;;;;7.03;1.60;;;13.30;99.90;;;;;;5034233;28;20041;-63
2023/03/21 10:31:48;;;;;;;39.38;13.60;;;13.20;99.90;;;;;;5034961;28;20037;-63
2023/03/21 10:34:14;;;;;;;6.82;1.45;;;13.20;99.90;;;;;;5034962;28;20041;-63
2023/03/21 10:36:41;;;;;;;7.72;1.50;;;13.10;99.90;;;;;;5034674;28;20049;-63
2023/03/21 10:39:08;;;;;;;12.55;3.50;;;13.10;99.90;;;;;;5033820;28;20045;-61
2023/03/21 10:41:35;;;;;;;6.82;1.65;;;13.00;99.90;;;;;;5035083;28;20151;-63
2023/03/21 10:44:02;;;;;;;6.38;1.25;;;13.00;99.90;;;;;;5032419;28;20080;-64
2023/03/21 10:46:28;;;;;;;5.40;1.10;;;13.00;99.90;;;;;;5034956;28;20119;-63
2023/03/21 10:48:55;;;;;;;4.88;1.10;;;13.10;99.90;;;;;;5034720;28;20124;-63
2023/03/21 10:51:22;;;;;;;4.63;1.50;;;13.20;99.90;;;;;;5034784;28;20037;-63
2023/03/21 10:53:50;;;;;;;5.82;1.20;;;13.30;99.90;;;;;;5034645;28;20065;-64
2023/03/21 10:56:16;;;;;;;8.07;1.75;;;13.40;99.90;;;;;;5034732;28;20073;-63
2023/03/21 10:58:44;;;;;;;4.50;1.10;;;13.30;99.90;;;;;;5034577;28;20402;-63
2023/03/21 11:01:13;;;;;;;4.47;1.20;;;13.30;99.90;;;;;;5033309;28;20072;-62
2023/03/21 11:03:42;;;;;;;4.97;1.50;;;13.30;99.90;;;;;;5031336;28;20033;-62
2023/03/21 11:06:09;;;;;;;5.55;1.30;;;13.20;99.90;;;;;;5032905;28;20044;-62
2023/03/21 11:08:36;;;;;;;6.20;1.35;;;13.20;99.90;;;;;;5034126;28;20045;-62
2023/03/21 11:11:03;;;;;;;4.45;1.30;;;13.30;99.90;;;;;;5033559;28;20037;-61
2023/03/21 11:13:30;;;;;;;6.20;1.70;;;13.30;99.90;;;;;;5033740;28;20528;-61
2023/03/21 11:15:57;;;;;;;8.23;1.50;;;13.30;99.90;;;;;;5033408;28;20045;-62
2023/03/21 11:18:24;;;;;;;6.45;1.73;;;13.30;99.90;;;;;;5034150;28;20041;-62
2023/03/21 11:20:51;;;;;;;8.13;1.77;;;13.40;99.90;;;;;;5032774;28;20439;-61
2023/03/21 11:23:17;;;;;;;7.15;1.67;;;13.50;99.90;;;;;;5033517;28;20465;-61
2023/03/21 11:25:46;;;;;;;7.00;1.70;;;13.60;99.90;;;;;;5033977;28;20440;-61
2023/03/21 11:28:13;;;;;;;5.85;1.42;;;13.60;99.90;;;;;;5033627;28;20045;-62
2023/03/21 11:30:39;;;;;;;11.85;1.63;;;13.70;99.90;;;;;;5033058;28;20452;-63
2023/03/21 11:33:06;;;;;;;9.85;2.45;;;13.70;99.90;;;;;;5033145;28;20045;-63
2023/03/21 11:35:33;;;;;;;9.85;2.55;;;13.80;99.90;;;;;;5033375;28;20073;-63
2023/03/21 11:38:00;;;;;;;6.10;1.75;;;14.00;99.90;;;;;;5032856;28;20095;-63
2023/03/21 11:40:26;;;;;;;6.38;1.50;;;14.10;99.90;;;;;;5031401;28;20429;-63
2023/03/21 11:42:53;;;;;;;10.02;2.05;;;14.20;99.90;;;;;;5033344;28;20041;-63
2023/03/21 11:45:20;;;;;;;10.27;1.80;;;14.30;99.90;;;;;;5032053;28;20087;-63
2023/03/21 11:47:48;;;;;;;5.90;1.50;;;14.30;99.90;;;;;;5031992;28;20515;-63
2023/03/21 11:50:15;;;;;;;9.02;1.77;;;14.40;99.90;;;;;;5033149;28;20084;-63
2023/03/21 11:52:42;;;;;;;5.32;1.60;;;14.40;99.90;;;;;;5032971;28;20045;-63
2023/03/21 11:55:08;;;;;;;9.30;2.17;;;14.50;99.90;;;;;;5032576;28;20080;-63
2023/03/21 11:57:36;;;;;;;8.23;2.53;;;14.50;99.90;;;;;;5033089;28;20053;-62
2023/03/21 12:00:08;;;;;;;9.02;2.10;;;14.50;99.90;;;;;;5032951;28;20136;-64
2023/03/21 12:02:35;;;;;;;11.52;2.00;;;14.50;99.90;;;;;;5033257;28;20049;-64
2023/03/21 12:05:02;;;;;;;13.70;3.13;;;14.40;99.90;;;;;;5032691;28;20050;-64
2023/03/21 12:07:29;;;;;;;14.00;2.08;;;14.30;99.90;;;;;;5033012;28;20052;-64
2023/03/21 12:09:56;;;;;;;6.53;1.90;;;14.20;99.90;;;;;;5031741;28;20080;-63
2023/03/21 12:12:23;;;;;;;10.13;1.83;;;14.10;99.90;;;;;;5032865;28;20095;-64
2023/03/21 12:15:03;;;;;;;5.95;1.60;;;14.10;99.90;;;;;;5033132;28;20493;-64
2023/03/21 12:17:30;;;;;;;7.88;1.92;;;14.00;99.90;;;;;;5032631;28;20096;-64
2023/03/21 12:19:57;;;;;;;10.27;1.92;;;13.90;99.90;;;;;;5031621;28;20439;-64
2023/03/21 12:22:24;;;;;;;8.82;1.63;;;13.80;99.90;;;;;;5032432;28;20132;-65
2023/03/21 12:24:51;;;;;;;6.43;1.50;;;13.70;99.90;;;;;;5031976;28;20393;-63
2023/03/21 12:27:17;;;;;;;7.63;1.92;;;13.70;99.90;;;;;;5032147;28;20128;-63
2023/03/21 12:29:44;;;;;;;8.45;2.15;;;13.80;99.90;;;;;;5032961;28;20350;-63
2023/03/21 12:32:11;;;;;;;9.77;2.00;;;13.90;99.90;;;;;;5032804;28;20037;-63
2023/03/21 12:34:37;;;;;;;11.82;2.30;;;13.90;99.90;;;;;;5032569;28;20558;-64
2023/03/21 12:37:04;;;;;;;9.90;2.22;;;13.90;99.90;;;;;;5032814;28;20041;-63
2023/03/21 12:39:31;;;;;;;9.32;1.80;;;13.90;99.90;;;;;;5032737;28;20041;-63
2023/03/21 12:41:58;;;;;;;12.52;2.47;;;14.00;99.90;;;;;;5032727;28;20080;-64
2023/03/21 12:44:24;;;;;;;10.65;2.80;;;14.00;99.90;;;;;;5031158;28;20045;-64
2023/03/21 12:46:51;;;;;;;13.00;3.28;;;13.90;99.90;;;;;;5032748;28;20076;-63
2023/03/21 12:49:18;;;;;;;11.65;3.00;;;13.90;99.90;;;;;;5031321;28;20056;-63
2023/03/21 12:51:45;;;;;;;9.38;4.07;;;13.90;99.90;;;;;;5032698;28;20041;-63